sensor_id;sensor_type;location;lat;lon;timestamp;P1;durP1;ratioP1;P2;durP2;ratioP2
12925;SDS011;6529;50.566;9.774;2023-04-24T00:01:42;2.20;;;1.33;;
12925;SDS011;6529;50.566;9.774;2023-04-24T00:04:08;1.67;;;1.43;;
12925;SDS011;6529;50.566;9.774;2023-04-24T00:06:36;1.40;;;1.30;;
12925;SDS011;6529;50.566;9.774;2023-04-24T00:09:02;1.60;;;1.30;;
12925;SDS011;6529;50.566;9.774;2023-04-24T00:11:28;1.50;;;1.40;;
12925;SDS011;6529;50.566;9.774;2023-04-24T00:13:54;1.73;;;1.40;;
12925;SDS011;6529;50.566;9.774;2023-04-24T00:16:21;1.43;;;1.33;;
12925;SDS011;6529;50.566;9.774;2023-04-24T00:18:46;1.70;;;1.33;;
12925;SDS011;6529;50.566;9.774;2023-04-24T00:21:13;1.50;;;1.40;;
12925;SDS011;6529;50.566;9.774;2023-04-24T00:23:39;2.03;;;1.50;;
12925;SDS011;6529;50.566;9.774;2023-04-24T00:26:05;2.07;;;1.50;;
12925;SDS011;6529;50.566;9.774;2023-04-24T00:28:30;2.83;;;1.50;;
12925;SDS011;6529;50.566;9.774;2023-04-24T00:30:56;2.10;;;1.47;;
12925;SDS011;6529;50.566;9.774;2023-04-24T00:33:22;2.03;;;1.40;;
12925;SDS011;6529;50.566;9.774;2023-04-24T00:35:47;2.87;;;1.50;;
12925;SDS011;6529;50.566;9.774;2023-04-24T00:38:13;2.70;;;1.50;;
12925;SDS011;6529;50.566;9.774;2023-04-24T00:40:39;2.80;;;1.50;;
12925;SDS011;6529;50.566;9.774;2023-04-24T00:43:04;2.47;;;1.70;;
12925;SDS011;6529;50.566;9.774;2023-04-24T00:45:30;1.90;;;1.80;;
12925;SDS011;6529;50.566;9.774;2023-04-24T00:47:56;2.07;;;1.60;;
12925;SDS011;6529;50.566;9.774;2023-04-24T00:50:21;1.93;;;1.70;;
12925;SDS011;6529;50.566;9.774;2023-04-24T00:52:48;2.83;;;1.80;;
12925;SDS011;6529;50.566;9.774;2023-04-24T00:55:14;2.40;;;1.90;;
12925;SDS011;6529;50.566;9.774;2023-04-24T00:57:40;2.90;;;1.90;;
12925;SDS011;6529;50.566;9.774;2023-04-24T01:00:06;1.93;;;1.70;;
12925;SDS011;6529;50.566;9.774;2023-04-24T01:02:35;2.37;;;1.70;;
12925;SDS011;6529;50.566;9.774;2023-04-24T01:05:04;1.67;;;1.57;;
12925;SDS011;6529;50.566;9.774;2023-04-24T01:07:32;2.27;;;1.80;;
12925;SDS011;6529;50.566;9.774;2023-04-24T01:09:58;1.87;;;1.60;;
12925;SDS011;6529;50.566;9.774;2023-04-24T01:12:24;1.60;;;1.50;;
12925;SDS011;6529;50.566;9.774;2023-04-24T01:14:49;1.83;;;1.33;;
12925;SDS011;6529;50.566;9.774;2023-04-24T01:17:15;1.60;;;1.50;;
12925;SDS011;6529;50.566;9.774;2023-04-24T01:19:41;2.57;;;1.47;;
12925;SDS011;6529;50.566;9.774;2023-04-24T01:22:15;1.73;;;1.63;;
12925;SDS011;6529;50.566;9.774;2023-04-24T01:24:42;1.80;;;1.70;;
12925;SDS011;6529;50.566;9.774;2023-04-24T01:27:08;2.70;;;1.40;;
12925;SDS011;6529;50.566;9.774;2023-04-24T01:29:35;2.13;;;1.60;;
12925;SDS011;6529;50.566;9.774;2023-04-24T01:32:01;1.90;;;1.37;;
12925;SDS011;6529;50.566;9.774;2023-04-24T01:34:30;3.27;;;1.40;;
12925;SDS011;6529;50.566;9.774;2023-04-24T01:36:55;3.13;;;1.40;;
12925;SDS011;6529;50.566;9.774;2023-04-24T01:39:21;1.73;;;1.30;;
12925;SDS011;6529;50.566;9.774;2023-04-24T01:41:51;2.80;;;1.53;;
12925;SDS011;6529;50.566;9.774;2023-04-24T01:44:17;1.70;;;1.33;;
12925;SDS011;6529;50.566;9.774;2023-04-24T01:46:43;1.60;;;1.40;;
12925;SDS011;6529;50.566;9.774;2023-04-24T01:49:09;2.27;;;1.47;;
12925;SDS011;6529;50.566;9.774;2023-04-24T01:51:35;1.63;;;1.53;;
12925;SDS011;6529;50.566;9.774;2023-04-24T01:54:00;1.53;;;1.43;;
12925;SDS011;6529;50.566;9.774;2023-04-24T01:56:26;1.57;;;1.30;;
12925;SDS011;6529;50.566;9.774;2023-04-24T01:58:54;2.30;;;1.37;;
12925;SDS011;6529;50.566;9.774;2023-04-24T02:01:22;1.97;;;1.47;;
12925;SDS011;6529;50.566;9.774;2023-04-24T02:03:49;1.70;;;1.20;;
12925;SDS011;6529;50.566;9.774;2023-04-24T02:06:15;1.67;;;1.20;;
12925;SDS011;6529;50.566;9.774;2023-04-24T02:08:40;1.40;;;1.27;;
12925;SDS011;6529;50.566;9.774;2023-04-24T02:11:06;1.47;;;1.37;;
12925;SDS011;6529;50.566;9.774;2023-04-24T02:13:33;2.80;;;1.50;;
12925;SDS011;6529;50.566;9.774;2023-04-24T02:15:58;3.23;;;1.30;;
12925;SDS011;6529;50.566;9.774;2023-04-24T02:18:24;2.47;;;1.20;;
12925;SDS011;6529;50.566;9.774;2023-04-24T02:20:50;3.27;;;1.40;;
12925;SDS011;6529;50.566;9.774;2023-04-24T02:23:15;1.90;;;1.30;;
12925;SDS011;6529;50.566;9.774;2023-04-24T02:25:41;1.50;;;1.40;;
12925;SDS011;6529;50.566;9.774;2023-04-24T02:28:06;1.80;;;1.40;;
12925;SDS011;6529;50.566;9.774;2023-04-24T02:30:32;1.30;;;1.20;;
12925;SDS011;6529;50.566;9.774;2023-04-24T02:32:58;2.23;;;1.50;;
12925;SDS011;6529;50.566;9.774;2023-04-24T02:35:23;1.60;;;1.50;;
12925;SDS011;6529;50.566;9.774;2023-04-24T02:37:49;1.70;;;1.20;;
12925;SDS011;6529;50.566;9.774;2023-04-24T02:40:14;1.60;;;1.20;;
12925;SDS011;6529;50.566;9.774;2023-04-24T02:42:40;2.20;;;1.30;;
12925;SDS011;6529;50.566;9.774;2023-04-24T02:45:06;2.20;;;1.43;;
12925;SDS011;6529;50.566;9.774;2023-04-24T02:47:32;2.37;;;1.10;;
12925;SDS011;6529;50.566;9.774;2023-04-24T02:49:57;2.60;;;1.37;;
12925;SDS011;6529;50.566;9.774;2023-04-24T02:52:23;1.33;;;1.23;;
12925;SDS011;6529;50.566;9.774;2023-04-24T02:54:48;2.27;;;1.30;;
12925;SDS011;6529;50.566;9.774;2023-04-24T02:57:14;1.60;;;1.20;;
12925;SDS011;6529;50.566;9.774;2023-04-24T02:59:40;2.00;;;1.17;;
12925;SDS011;6529;50.566;9.774;2023-04-24T03:02:05;3.00;;;1.30;;
12925;SDS011;6529;50.566;9.774;2023-04-24T03:04:31;2.00;;;1.20;;
12925;SDS011;6529;50.566;9.774;2023-04-24T03:06:57;2.37;;;1.07;;
12925;SDS011;6529;50.566;9.774;2023-04-24T03:09:22;1.30;;;1.20;;
12925;SDS011;6529;50.566;9.774;2023-04-24T03:11:48;2.53;;;1.40;;
12925;SDS011;6529;50.566;9.774;2023-04-24T03:14:14;1.20;;;1.10;;
12925;SDS011;6529;50.566;9.774;2023-04-24T03:16:40;1.73;;;1.30;;
12925;SDS011;6529;50.566;9.774;2023-04-24T03:19:06;2.67;;;1.40;;
12925;SDS011;6529;50.566;9.774;2023-04-24T03:21:32;3.40;;;1.73;;
12925;SDS011;6529;50.566;9.774;2023-04-24T03:23:57;2.27;;;1.30;;
12925;SDS011;6529;50.566;9.774;2023-04-24T03:26:23;2.83;;;1.30;;
12925;SDS011;6529;50.566;9.774;2023-04-24T03:28:49;1.30;;;1.10;;
12925;SDS011;6529;50.566;9.774;2023-04-24T03:31:14;1.93;;;1.50;;
12925;SDS011;6529;50.566;9.774;2023-04-24T03:33:40;2.07;;;1.30;;
12925;SDS011;6529;50.566;9.774;2023-04-24T03:36:06;2.87;;;1.20;;
12925;SDS011;6529;50.566;9.774;2023-04-24T03:38:32;1.37;;;1.20;;
12925;SDS011;6529;50.566;9.774;2023-04-24T03:40:57;1.47;;;1.20;;
12925;SDS011;6529;50.566;9.774;2023-04-24T03:43:23;1.43;;;1.07;;
12925;SDS011;6529;50.566;9.774;2023-04-24T03:45:48;1.90;;;1.20;;
12925;SDS011;6529;50.566;9.774;2023-04-24T03:48:14;1.77;;;1.20;;
12925;SDS011;6529;50.566;9.774;2023-04-24T03:50:40;1.63;;;1.50;;
12925;SDS011;6529;50.566;9.774;2023-04-24T03:53:05;2.40;;;1.30;;
12925;SDS011;6529;50.566;9.774;2023-04-24T03:55:31;2.70;;;1.20;;
12925;SDS011;6529;50.566;9.774;2023-04-24T03:57:56;1.70;;;1.10;;
12925;SDS011;6529;50.566;9.774;2023-04-24T04:00:22;2.33;;;1.10;;
12925;SDS011;6529;50.566;9.774;2023-04-24T04:02:47;1.30;;;1.07;;
12925;SDS011;6529;50.566;9.774;2023-04-24T04:05:13;1.40;;;1.10;;
12925;SDS011;6529;50.566;9.774;2023-04-24T04:07:39;2.23;;;1.20;;
12925;SDS011;6529;50.566;9.774;2023-04-24T04:10:04;3.80;;;1.33;;
12925;SDS011;6529;50.566;9.774;2023-04-24T04:12:31;1.50;;;1.23;;
12925;SDS011;6529;50.566;9.774;2023-04-24T04:14:57;1.70;;;1.20;;
12925;SDS011;6529;50.566;9.774;2023-04-24T04:17:23;1.40;;;1.30;;
12925;SDS011;6529;50.566;9.774;2023-04-24T04:19:48;1.20;;;1.10;;
12925;SDS011;6529;50.566;9.774;2023-04-24T04:22:14;1.83;;;1.30;;
12925;SDS011;6529;50.566;9.774;2023-04-24T04:24:39;2.03;;;1.10;;
12925;SDS011;6529;50.566;9.774;2023-04-24T04:27:05;1.17;;;1.07;;
12925;SDS011;6529;50.566;9.774;2023-04-24T04:29:31;2.90;;;1.30;;
12925;SDS011;6529;50.566;9.774;2023-04-24T04:31:57;2.13;;;1.20;;
12925;SDS011;6529;50.566;9.774;2023-04-24T04:34:23;1.57;;;1.17;;
12925;SDS011;6529;50.566;9.774;2023-04-24T04:36:49;1.77;;;1.30;;
12925;SDS011;6529;50.566;9.774;2023-04-24T04:39:15;1.70;;;1.23;;
12925;SDS011;6529;50.566;9.774;2023-04-24T04:41:41;2.70;;;1.40;;
12925;SDS011;6529;50.566;9.774;2023-04-24T04:44:07;2.27;;;1.23;;
12925;SDS011;6529;50.566;9.774;2023-04-24T04:46:34;1.40;;;1.30;;
12925;SDS011;6529;50.566;9.774;2023-04-24T04:49:00;2.33;;;1.40;;
12925;SDS011;6529;50.566;9.774;2023-04-24T04:51:26;1.77;;;1.40;;
12925;SDS011;6529;50.566;9.774;2023-04-24T04:53:52;2.57;;;1.40;;
12925;SDS011;6529;50.566;9.774;2023-04-24T04:56:17;2.10;;;1.43;;
12925;SDS011;6529;50.566;9.774;2023-04-24T04:58:43;2.07;;;1.50;;
12925;SDS011;6529;50.566;9.774;2023-04-24T05:01:09;2.43;;;1.40;;
12925;SDS011;6529;50.566;9.774;2023-04-24T05:03:34;1.97;;;1.63;;
12925;SDS011;6529;50.566;9.774;2023-04-24T05:06:00;1.70;;;1.60;;
12925;SDS011;6529;50.566;9.774;2023-04-24T05:08:27;2.83;;;1.87;;
12925;SDS011;6529;50.566;9.774;2023-04-24T05:10:52;2.03;;;1.40;;
12925;SDS011;6529;50.566;9.774;2023-04-24T05:13:18;2.00;;;1.80;;
12925;SDS011;6529;50.566;9.774;2023-04-24T05:15:44;2.00;;;1.70;;
12925;SDS011;6529;50.566;9.774;2023-04-24T05:18:10;3.23;;;1.80;;
12925;SDS011;6529;50.566;9.774;2023-04-24T05:20:35;3.47;;;1.87;;
12925;SDS011;6529;50.566;9.774;2023-04-24T05:23:01;3.10;;;1.90;;
12925;SDS011;6529;50.566;9.774;2023-04-24T05:25:27;2.37;;;1.70;;
12925;SDS011;6529;50.566;9.774;2023-04-24T05:27:52;2.50;;;1.80;;
12925;SDS011;6529;50.566;9.774;2023-04-24T05:30:18;1.93;;;1.67;;
12925;SDS011;6529;50.566;9.774;2023-04-24T05:32:44;3.07;;;1.70;;
12925;SDS011;6529;50.566;9.774;2023-04-24T05:35:11;2.03;;;1.63;;
12925;SDS011;6529;50.566;9.774;2023-04-24T05:37:36;3.20;;;1.77;;
12925;SDS011;6529;50.566;9.774;2023-04-24T05:40:02;1.70;;;1.60;;
12925;SDS011;6529;50.566;9.774;2023-04-24T05:42:30;2.07;;;1.80;;
12925;SDS011;6529;50.566;9.774;2023-04-24T05:44:56;2.33;;;1.67;;
12925;SDS011;6529;50.566;9.774;2023-04-24T05:47:21;2.73;;;1.80;;
12925;SDS011;6529;50.566;9.774;2023-04-24T05:49:47;1.93;;;1.70;;
12925;SDS011;6529;50.566;9.774;2023-04-24T05:52:13;3.60;;;1.80;;
12925;SDS011;6529;50.566;9.774;2023-04-24T05:54:38;2.50;;;1.80;;
12925;SDS011;6529;50.566;9.774;2023-04-24T05:57:04;1.70;;;1.60;;
12925;SDS011;6529;50.566;9.774;2023-04-24T05:59:33;2.00;;;1.50;;
12925;SDS011;6529;50.566;9.774;2023-04-24T06:02:02;2.77;;;1.87;;
12925;SDS011;6529;50.566;9.774;2023-04-24T06:04:28;2.07;;;1.87;;
12925;SDS011;6529;50.566;9.774;2023-04-24T06:06:53;2.03;;;1.83;;
12925;SDS011;6529;50.566;9.774;2023-04-24T06:09:21;2.60;;;2.00;;
12925;SDS011;6529;50.566;9.774;2023-04-24T06:11:47;2.10;;;1.90;;
12925;SDS011;6529;50.566;9.774;2023-04-24T06:14:14;4.20;;;2.50;;
12925;SDS011;6529;50.566;9.774;2023-04-24T06:16:41;2.43;;;2.23;;
12925;SDS011;6529;50.566;9.774;2023-04-24T06:19:07;2.03;;;1.70;;
12925;SDS011;6529;50.566;9.774;2023-04-24T06:21:33;2.10;;;1.90;;
12925;SDS011;6529;50.566;9.774;2023-04-24T06:23:58;2.30;;;2.03;;
12925;SDS011;6529;50.566;9.774;2023-04-24T06:26:24;2.13;;;1.93;;
12925;SDS011;6529;50.566;9.774;2023-04-24T06:28:51;2.37;;;1.80;;
12925;SDS011;6529;50.566;9.774;2023-04-24T06:31:18;3.27;;;1.90;;
12925;SDS011;6529;50.566;9.774;2023-04-24T06:33:45;2.10;;;1.73;;
12925;SDS011;6529;50.566;9.774;2023-04-24T06:36:12;3.43;;;1.70;;
12925;SDS011;6529;50.566;9.774;2023-04-24T06:38:37;1.80;;;1.63;;
12925;SDS011;6529;50.566;9.774;2023-04-24T06:41:03;1.80;;;1.70;;
12925;SDS011;6529;50.566;9.774;2023-04-24T06:43:30;3.83;;;1.77;;
12925;SDS011;6529;50.566;9.774;2023-04-24T06:45:59;1.97;;;1.87;;
12925;SDS011;6529;50.566;9.774;2023-04-24T06:48:25;2.13;;;1.93;;
12925;SDS011;6529;50.566;9.774;2023-04-24T06:50:51;2.10;;;1.90;;
12925;SDS011;6529;50.566;9.774;2023-04-24T06:53:17;2.40;;;1.80;;
12925;SDS011;6529;50.566;9.774;2023-04-24T06:55:43;2.00;;;1.80;;
12925;SDS011;6529;50.566;9.774;2023-04-24T06:58:10;2.93;;;1.80;;
12925;SDS011;6529;50.566;9.774;2023-04-24T07:00:36;3.13;;;1.87;;
12925;SDS011;6529;50.566;9.774;2023-04-24T07:03:02;2.47;;;1.80;;
12925;SDS011;6529;50.566;9.774;2023-04-24T07:05:30;1.67;;;1.57;;
12925;SDS011;6529;50.566;9.774;2023-04-24T07:07:55;1.67;;;1.57;;
12925;SDS011;6529;50.566;9.774;2023-04-24T07:10:23;1.70;;;1.60;;
12925;SDS011;6529;50.566;9.774;2023-04-24T07:12:49;1.93;;;1.73;;
12925;SDS011;6529;50.566;9.774;2023-04-24T07:15:15;2.10;;;1.30;;
12925;SDS011;6529;50.566;9.774;2023-04-24T07:17:41;1.70;;;1.60;;
12925;SDS011;6529;50.566;9.774;2023-04-24T07:20:09;3.23;;;1.70;;
12925;SDS011;6529;50.566;9.774;2023-04-24T07:22:35;1.73;;;1.40;;
12925;SDS011;6529;50.566;9.774;2023-04-24T07:25:02;1.93;;;1.73;;
12925;SDS011;6529;50.566;9.774;2023-04-24T07:27:28;2.70;;;1.80;;
12925;SDS011;6529;50.566;9.774;2023-04-24T07:29:53;1.90;;;1.70;;
12925;SDS011;6529;50.566;9.774;2023-04-24T07:32:19;2.40;;;1.50;;
12925;SDS011;6529;50.566;9.774;2023-04-24T07:34:45;1.93;;;1.63;;
12925;SDS011;6529;50.566;9.774;2023-04-24T07:37:10;1.70;;;1.60;;
12925;SDS011;6529;50.566;9.774;2023-04-24T07:39:36;2.60;;;1.70;;
12925;SDS011;6529;50.566;9.774;2023-04-24T07:42:02;2.70;;;1.87;;
12925;SDS011;6529;50.566;9.774;2023-04-24T07:44:28;2.37;;;1.67;;
12925;SDS011;6529;50.566;9.774;2023-04-24T07:46:54;2.30;;;1.90;;
12925;SDS011;6529;50.566;9.774;2023-04-24T07:49:20;2.27;;;1.67;;
12925;SDS011;6529;50.566;9.774;2023-04-24T07:51:46;1.60;;;1.50;;
12925;SDS011;6529;50.566;9.774;2023-04-24T07:54:12;1.90;;;1.80;;
12925;SDS011;6529;50.566;9.774;2023-04-24T07:56:37;2.10;;;1.90;;
12925;SDS011;6529;50.566;9.774;2023-04-24T07:59:04;2.40;;;2.10;;
12925;SDS011;6529;50.566;9.774;2023-04-24T08:01:30;2.33;;;2.13;;
12925;SDS011;6529;50.566;9.774;2023-04-24T08:03:55;3.37;;;2.27;;
12925;SDS011;6529;50.566;9.774;2023-04-24T08:06:21;3.33;;;2.47;;
12925;SDS011;6529;50.566;9.774;2023-04-24T08:08:47;2.60;;;2.40;;
12925;SDS011;6529;50.566;9.774;2023-04-24T08:11:12;2.80;;;2.60;;
12925;SDS011;6529;50.566;9.774;2023-04-24T08:13:38;3.13;;;2.63;;
12925;SDS011;6529;50.566;9.774;2023-04-24T08:16:03;2.93;;;2.47;;
12925;SDS011;6529;50.566;9.774;2023-04-24T08:18:29;4.10;;;3.00;;
12925;SDS011;6529;50.566;9.774;2023-04-24T08:20:55;4.67;;;2.67;;
12925;SDS011;6529;50.566;9.774;2023-04-24T08:23:26;4.53;;;2.50;;
12925;SDS011;6529;50.566;9.774;2023-04-24T08:25:51;3.93;;;3.50;;
12925;SDS011;6529;50.566;9.774;2023-04-24T08:28:17;6.57;;;3.10;;
12925;SDS011;6529;50.566;9.774;2023-04-24T08:30:45;3.47;;;2.87;;
12925;SDS011;6529;50.566;9.774;2023-04-24T08:33:12;3.87;;;2.90;;
12925;SDS011;6529;50.566;9.774;2023-04-24T08:35:37;3.33;;;2.60;;
12925;SDS011;6529;50.566;9.774;2023-04-24T08:38:03;3.27;;;2.87;;
12925;SDS011;6529;50.566;9.774;2023-04-24T08:40:29;2.93;;;2.40;;
12925;SDS011;6529;50.566;9.774;2023-04-24T08:42:58;3.53;;;2.83;;
12925;SDS011;6529;50.566;9.774;2023-04-24T08:45:25;3.57;;;3.10;;
12925;SDS011;6529;50.566;9.774;2023-04-24T08:47:51;4.17;;;3.20;;
12925;SDS011;6529;50.566;9.774;2023-04-24T08:50:19;5.10;;;2.97;;
12925;SDS011;6529;50.566;9.774;2023-04-24T08:52:45;3.73;;;3.10;;
12925;SDS011;6529;50.566;9.774;2023-04-24T08:55:14;3.83;;;3.43;;
12925;SDS011;6529;50.566;9.774;2023-04-24T08:57:43;3.80;;;3.20;;
12925;SDS011;6529;50.566;9.774;2023-04-24T09:00:10;3.17;;;2.70;;
12925;SDS011;6529;50.566;9.774;2023-04-24T09:02:36;3.27;;;2.80;;
12925;SDS011;6529;50.566;9.774;2023-04-24T09:05:04;3.60;;;2.87;;
12925;SDS011;6529;50.566;9.774;2023-04-24T09:07:30;5.77;;;3.17;;
12925;SDS011;6529;50.566;9.774;2023-04-24T09:10:01;2.77;;;2.57;;
12925;SDS011;6529;50.566;9.774;2023-04-24T09:12:27;2.83;;;2.60;;
12925;SDS011;6529;50.566;9.774;2023-04-24T09:14:53;3.93;;;2.47;;
12925;SDS011;6529;50.566;9.774;2023-04-24T09:17:20;3.37;;;2.67;;
12925;SDS011;6529;50.566;9.774;2023-04-24T09:19:47;2.60;;;2.37;;
12925;SDS011;6529;50.566;9.774;2023-04-24T09:22:13;2.90;;;2.37;;
12925;SDS011;6529;50.566;9.774;2023-04-24T09:24:40;2.80;;;2.50;;
12925;SDS011;6529;50.566;9.774;2023-04-24T09:27:05;2.50;;;2.30;;
12925;SDS011;6529;50.566;9.774;2023-04-24T09:29:32;2.83;;;2.20;;
12925;SDS011;6529;50.566;9.774;2023-04-24T09:31:58;2.40;;;2.20;;
12925;SDS011;6529;50.566;9.774;2023-04-24T09:34:24;2.50;;;2.30;;
12925;SDS011;6529;50.566;9.774;2023-04-24T09:36:51;2.30;;;1.97;;
12925;SDS011;6529;50.566;9.774;2023-04-24T09:39:18;2.50;;;1.87;;
12925;SDS011;6529;50.566;9.774;2023-04-24T09:41:53;2.43;;;2.23;;
12925;SDS011;6529;50.566;9.774;2023-04-24T09:44:26;2.80;;;2.03;;
12925;SDS011;6529;50.566;9.774;2023-04-24T09:47:02;2.57;;;2.37;;
12925;SDS011;6529;50.566;9.774;2023-04-24T09:49:28;2.53;;;2.13;;
12925;SDS011;6529;50.566;9.774;2023-04-24T09:52:29;2.13;;;1.93;;
12925;SDS011;6529;50.566;9.774;2023-04-24T09:54:53;2.43;;;2.13;;
12925;SDS011;6529;50.566;9.774;2023-04-24T09:57:19;3.20;;;2.33;;
12925;SDS011;6529;50.566;9.774;2023-04-24T09:59:45;2.90;;;2.30;;
12925;SDS011;6529;50.566;9.774;2023-04-24T10:02:17;3.57;;;2.63;;
12925;SDS011;6529;50.566;9.774;2023-04-24T10:04:54;2.50;;;2.30;;
12925;SDS011;6529;50.566;9.774;2023-04-24T10:07:21;2.77;;;2.27;;
12925;SDS011;6529;50.566;9.774;2023-04-24T10:09:47;3.33;;;2.80;;
12925;SDS011;6529;50.566;9.774;2023-04-24T10:12:13;2.17;;;1.97;;
12925;SDS011;6529;50.566;9.774;2023-04-24T10:14:40;3.43;;;2.43;;
12925;SDS011;6529;50.566;9.774;2023-04-24T10:17:06;3.40;;;2.90;;
12925;SDS011;6529;50.566;9.774;2023-04-24T10:19:31;3.30;;;2.50;;
12925;SDS011;6529;50.566;9.774;2023-04-24T10:21:58;3.00;;;2.70;;
12925;SDS011;6529;50.566;9.774;2023-04-24T10:24:25;4.50;;;3.83;;
12925;SDS011;6529;50.566;9.774;2023-04-24T10:26:51;2.67;;;2.47;;
12925;SDS011;6529;50.566;9.774;2023-04-24T10:29:18;4.40;;;2.23;;
12925;SDS011;6529;50.566;9.774;2023-04-24T10:31:44;2.47;;;2.27;;
12925;SDS011;6529;50.566;9.774;2023-04-24T10:34:11;3.13;;;2.20;;
12925;SDS011;6529;50.566;9.774;2023-04-24T10:36:40;2.60;;;2.40;;
12925;SDS011;6529;50.566;9.774;2023-04-24T10:39:11;2.70;;;2.50;;
12925;SDS011;6529;50.566;9.774;2023-04-24T10:41:38;2.97;;;2.40;;
12925;SDS011;6529;50.566;9.774;2023-04-24T10:46:38;3.07;;;2.50;;
12925;SDS011;6529;50.566;9.774;2023-04-24T10:49:05;2.67;;;2.33;;
12925;SDS011;6529;50.566;9.774;2023-04-24T10:51:50;2.57;;;2.37;;
12925;SDS011;6529;50.566;9.774;2023-04-24T10:54:21;2.70;;;2.20;;
12925;SDS011;6529;50.566;9.774;2023-04-24T10:59:47;2.43;;;2.20;;
12925;SDS011;6529;50.566;9.774;2023-04-24T11:02:39;2.60;;;2.03;;
12925;SDS011;6529;50.566;9.774;2023-04-24T11:05:12;3.17;;;2.57;;
12925;SDS011;6529;50.566;9.774;2023-04-24T11:10:38;2.87;;;2.67;;
12925;SDS011;6529;50.566;9.774;2023-04-24T11:13:05;3.33;;;2.50;;
12925;SDS011;6529;50.566;9.774;2023-04-24T11:15:31;3.37;;;2.70;;
12925;SDS011;6529;50.566;9.774;2023-04-24T11:17:57;2.80;;;2.47;;
12925;SDS011;6529;50.566;9.774;2023-04-24T11:20:22;4.63;;;2.63;;
12925;SDS011;6529;50.566;9.774;2023-04-24T11:22:50;3.10;;;2.50;;
12925;SDS011;6529;50.566;9.774;2023-04-24T11:25:19;2.83;;;2.30;;
12925;SDS011;6529;50.566;9.774;2023-04-24T11:27:47;2.67;;;2.40;;
12925;SDS011;6529;50.566;9.774;2023-04-24T11:30:17;2.50;;;2.30;;
12925;SDS011;6529;50.566;9.774;2023-04-24T11:32:46;3.30;;;2.30;;
12925;SDS011;6529;50.566;9.774;2023-04-24T11:35:14;3.17;;;2.00;;
12925;SDS011;6529;50.566;9.774;2023-04-24T11:37:42;2.30;;;2.00;;
12925;SDS011;6529;50.566;9.774;2023-04-24T11:40:14;2.20;;;2.00;;
12925;SDS011;6529;50.566;9.774;2023-04-24T11:42:44;3.00;;;2.03;;
12925;SDS011;6529;50.566;9.774;2023-04-24T11:47:36;1.80;;;1.70;;
12925;SDS011;6529;50.566;9.774;2023-04-24T11:50:02;2.10;;;1.90;;
12925;SDS011;6529;50.566;9.774;2023-04-24T11:52:30;3.03;;;2.63;;
12925;SDS011;6529;50.566;9.774;2023-04-24T11:54:56;3.10;;;2.80;;
12925;SDS011;6529;50.566;9.774;2023-04-24T11:57:22;3.10;;;2.80;;
12925;SDS011;6529;50.566;9.774;2023-04-24T11:59:51;2.87;;;2.50;;
12925;SDS011;6529;50.566;9.774;2023-04-24T12:02:21;4.17;;;2.40;;
12925;SDS011;6529;50.566;9.774;2023-04-24T12:04:51;2.80;;;2.47;;
12925;SDS011;6529;50.566;9.774;2023-04-24T12:07:18;2.90;;;2.20;;
12925;SDS011;6529;50.566;9.774;2023-04-24T12:09:47;2.00;;;1.80;;
12925;SDS011;6529;50.566;9.774;2023-04-24T12:12:16;4.10;;;2.00;;
12925;SDS011;6529;50.566;9.774;2023-04-24T12:15:06;2.33;;;2.13;;
12925;SDS011;6529;50.566;9.774;2023-04-24T12:17:32;1.63;;;1.20;;
12925;SDS011;6529;50.566;9.774;2023-04-24T12:25:27;2.43;;;1.80;;
12925;SDS011;6529;50.566;9.774;2023-04-24T12:30:44;2.63;;;2.10;;
12925;SDS011;6529;50.566;9.774;2023-04-24T12:33:16;2.10;;;1.90;;
12925;SDS011;6529;50.566;9.774;2023-04-24T12:35:43;2.33;;;2.00;;
12925;SDS011;6529;50.566;9.774;2023-04-24T12:38:10;2.10;;;1.90;;
12925;SDS011;6529;50.566;9.774;2023-04-24T12:40:38;1.40;;;1.30;;
12925;SDS011;6529;50.566;9.774;2023-04-24T12:43:16;1.50;;;1.40;;
12925;SDS011;6529;50.566;9.774;2023-04-24T12:45:43;1.50;;;1.40;;
12925;SDS011;6529;50.566;9.774;2023-04-24T12:48:10;2.43;;;1.30;;
12925;SDS011;6529;50.566;9.774;2023-04-24T12:50:36;2.33;;;1.30;;
12925;SDS011;6529;50.566;9.774;2023-04-24T12:53:02;1.00;;;0.97;;
12925;SDS011;6529;50.566;9.774;2023-04-24T12:55:28;1.20;;;1.10;;
12925;SDS011;6529;50.566;9.774;2023-04-24T12:57:53;1.20;;;1.10;;
12925;SDS011;6529;50.566;9.774;2023-04-24T13:00:20;1.10;;;1.00;;
12925;SDS011;6529;50.566;9.774;2023-04-24T13:02:46;1.63;;;1.30;;
12925;SDS011;6529;50.566;9.774;2023-04-24T13:05:11;1.23;;;1.03;;
12925;SDS011;6529;50.566;9.774;2023-04-24T13:07:38;1.23;;;1.13;;
12925;SDS011;6529;50.566;9.774;2023-04-24T13:10:04;0.90;;;0.90;;
12925;SDS011;6529;50.566;9.774;2023-04-24T13:12:31;1.00;;;0.90;;
12925;SDS011;6529;50.566;9.774;2023-04-24T13:14:57;0.90;;;0.90;;
12925;SDS011;6529;50.566;9.774;2023-04-24T13:17:22;0.87;;;0.83;;
12925;SDS011;6529;50.566;9.774;2023-04-24T13:19:49;0.80;;;0.80;;
12925;SDS011;6529;50.566;9.774;2023-04-24T13:22:15;0.93;;;0.73;;
12925;SDS011;6529;50.566;9.774;2023-04-24T13:24:43;0.90;;;0.87;;
12925;SDS011;6529;50.566;9.774;2023-04-24T13:27:09;1.00;;;0.90;;
12925;SDS011;6529;50.566;9.774;2023-04-24T13:29:35;1.00;;;1.00;;
12925;SDS011;6529;50.566;9.774;2023-04-24T13:32:02;0.70;;;0.70;;
12925;SDS011;6529;50.566;9.774;2023-04-24T13:34:27;0.93;;;0.90;;
12925;SDS011;6529;50.566;9.774;2023-04-24T13:36:53;1.00;;;0.90;;
12925;SDS011;6529;50.566;9.774;2023-04-24T13:39:21;0.97;;;0.90;;
12925;SDS011;6529;50.566;9.774;2023-04-24T13:41:47;1.57;;;0.97;;
12925;SDS011;6529;50.566;9.774;2023-04-24T13:44:13;0.80;;;0.80;;
12925;SDS011;6529;50.566;9.774;2023-04-24T13:46:44;0.90;;;0.90;;
12925;SDS011;6529;50.566;9.774;2023-04-24T13:49:11;0.87;;;0.87;;
12925;SDS011;6529;50.566;9.774;2023-04-24T13:51:38;0.87;;;0.80;;
12925;SDS011;6529;50.566;9.774;2023-04-24T13:54:04;0.70;;;0.70;;
12925;SDS011;6529;50.566;9.774;2023-04-24T13:56:29;1.10;;;0.90;;
12925;SDS011;6529;50.566;9.774;2023-04-24T13:58:55;0.80;;;0.80;;
12925;SDS011;6529;50.566;9.774;2023-04-24T14:01:21;1.00;;;0.90;;
12925;SDS011;6529;50.566;9.774;2023-04-24T14:03:50;1.40;;;1.10;;
12925;SDS011;6529;50.566;9.774;2023-04-24T14:06:16;1.27;;;1.10;;
12925;SDS011;6529;50.566;9.774;2023-04-24T14:08:42;1.50;;;1.40;;
12925;SDS011;6529;50.566;9.774;2023-04-24T14:11:08;2.43;;;1.70;;
12925;SDS011;6529;50.566;9.774;2023-04-24T14:13:33;1.90;;;1.20;;
12925;SDS011;6529;50.566;9.774;2023-04-24T14:16:00;1.40;;;1.30;;
12925;SDS011;6529;50.566;9.774;2023-04-24T14:18:26;1.63;;;1.53;;
12925;SDS011;6529;50.566;9.774;2023-04-24T14:20:52;1.60;;;1.30;;
12925;SDS011;6529;50.566;9.774;2023-04-24T14:23:17;3.33;;;1.40;;
12925;SDS011;6529;50.566;9.774;2023-04-24T14:25:43;1.40;;;1.30;;
12925;SDS011;6529;50.566;9.774;2023-04-24T14:28:09;1.87;;;1.40;;
12925;SDS011;6529;50.566;9.774;2023-04-24T14:30:35;1.60;;;1.50;;
12925;SDS011;6529;50.566;9.774;2023-04-24T14:33:02;2.50;;;1.60;;
12925;SDS011;6529;50.566;9.774;2023-04-24T14:35:28;1.60;;;1.50;;
12925;SDS011;6529;50.566;9.774;2023-04-24T14:37:56;2.30;;;1.73;;
12925;SDS011;6529;50.566;9.774;2023-04-24T14:40:22;2.80;;;2.60;;
12925;SDS011;6529;50.566;9.774;2023-04-24T14:42:47;2.17;;;1.83;;
12925;SDS011;6529;50.566;9.774;2023-04-24T14:45:13;2.10;;;1.90;;
12925;SDS011;6529;50.566;9.774;2023-04-24T14:47:39;1.93;;;1.80;;
12925;SDS011;6529;50.566;9.774;2023-04-24T14:50:05;2.13;;;1.70;;
12925;SDS011;6529;50.566;9.774;2023-04-24T14:52:32;3.10;;;1.80;;
12925;SDS011;6529;50.566;9.774;2023-04-24T14:54:57;3.30;;;2.00;;
12925;SDS011;6529;50.566;9.774;2023-04-24T14:57:23;2.07;;;1.50;;
12925;SDS011;6529;50.566;9.774;2023-04-24T14:59:49;3.07;;;1.70;;
12925;SDS011;6529;50.566;9.774;2023-04-24T15:02:14;2.93;;;2.33;;
12925;SDS011;6529;50.566;9.774;2023-04-24T15:04:40;3.63;;;2.47;;
12925;SDS011;6529;50.566;9.774;2023-04-24T15:07:06;2.60;;;2.37;;
12925;SDS011;6529;50.566;9.774;2023-04-24T15:09:31;2.93;;;2.33;;
12925;SDS011;6529;50.566;9.774;2023-04-24T15:11:57;3.20;;;1.67;;
12925;SDS011;6529;50.566;9.774;2023-04-24T15:14:23;1.70;;;1.60;;
12925;SDS011;6529;50.566;9.774;2023-04-24T15:16:49;3.27;;;1.90;;